Aérodrome :
LOGIN :

S'inscrire | Disclaimer

   EN    FR    IT 

 










Légende :    VFR   VFR Marginal   IFR   IFR Intensif   IFR Très Intensif
Visi : 
Plafond : 
>= 8 km
>= 3000ft
5 à 8 km
1000 à 3000 ft
1500m à 5 km
500 à 1000 ft
800 à 1500m
200 à 500 ft
< 800m
< 200 ft
Symboles :   Orages  Brouillard  Fortes neiges  Fortes précipitations  Vent > 20 kt
SIGMETs :   Divers  Orages  Givrage  Turbulence  Onde Orograph.  Cendres Volcan.






- Altitude de l'aérodrome : 16 ft
- Code IATA : LPX


EVLA - Liepaja

DERNIER METAR :
  • 300650Z AUTO 20003KT 170V240 9999 FEW030/// 02/M02 Q1020

METARs EXPIRÉS :
  • 300620Z AUTO 00000KT 9999 FEW024/// 02/M03 Q1020
  • 300550Z AUTO 00000KT 9999 NCD M01/M03 Q1020
  • 300520Z AUTO VRB01KT 9999 NCD M04/M05 Q1020
  • 300450Z AUTO 06002KT 9999 NCD M05/M06 Q1020
  • 300420Z AUTO 07003KT 9999 NCD M06/M07 Q1020

TAF TAF EVLA
Valide du 30 à 06h jusqu'au 31 à 06h UTC


300502Z 3006/3106 33005KT 9999 SCT025
TEMPO 3006/3013 SCT020CB
TEMPO 3011/3015 35015G30KT 1500 SHSNRA BKN010 SCT015CB
TEMPO 3017/3103 4000 -SHSNRA BKN010 SCT015CB
BECMG 3022/3024 04007KT



MET'MAP, la Météo Aéronautique d'un coup d'oeil ! - Copyright ORBIFLY Décembre 2007 - Disclaimer

ORBIFLY MET'MAP TEAM :

Programmation & Développement : Alexandra Zaïnal
Sur une idée originale de : Baudouin d'Aumeries
Assistance à la programmation : Marc-Olivier Méhu
Soutien technique & logistique : Manuel Goepfert

Contact : metmap@orbifly.com




SOURCES & CREDITS :

   NOAA